Time;durP1;ratioP1;P1;durP2;ratioP2;P2;SDS_P1;SDS_P2;PMS_P1;PMS_P2;Temp;Humidity;BMP_temperature;BMP_pressure;BME280_temperature;BME280_humidity;BME280_pressure;Samples;Min_cycle;Max_cycle;Signal;HPM_P1;HPM_P2
2023/07/09 00:00:17;;;;;;;5.88;5.10;;;22.70;99.90;;;;;;5074033;28;20048;-83
2023/07/09 00:02:43;;;;;;;8.50;5.40;;;22.70;99.90;;;;;;5074919;28;20071;-83
2023/07/09 00:05:16;;;;;;;7.80;5.95;;;22.60;99.90;;;;;;5073645;28;20040;-83
2023/07/09 00:07:43;;;;;;;7.78;5.28;;;22.50;99.90;;;;;;5057131;28;20041;-84
2023/07/09 00:10:26;;;;;;;7.75;5.10;;;22.40;99.90;;;;;;5074745;28;20366;-83
2023/07/09 00:12:52;;;;;;;6.90;4.90;;;22.40;99.90;;;;;;5057028;28;20044;-83
2023/07/09 00:15:18;;;;;;;7.28;5.25;;;22.30;99.90;;;;;;5073457;28;20358;-82
2023/07/09 00:17:44;;;;;;;6.10;5.18;;;22.20;99.90;;;;;;5074333;28;20473;-82
2023/07/09 00:20:17;;;;;;;7.15;5.30;;;22.20;99.90;;;;;;5074088;28;20036;-82
2023/07/09 00:22:51;;;;;;;8.70;4.97;;;22.20;99.90;;;;;;5073582;28;20052;-82
2023/07/09 00:25:19;;;;;;;6.40;4.97;;;22.10;99.90;;;;;;5073634;28;20055;-83
2023/07/09 00:27:48;;;;;;;6.80;4.78;;;22.20;99.90;;;;;;5073209;28;20477;-82
2023/07/09 00:30:16;;;;;;;9.93;5.75;;;22.20;99.90;;;;;;5073473;28;20079;-82
2023/07/09 00:32:43;;;;;;;7.93;5.28;;;22.20;99.90;;;;;;5074252;28;20500;-82
2023/07/09 00:35:13;;;;;;;6.75;4.78;;;22.20;99.90;;;;;;5072737;28;20438;-83
2023/07/09 00:37:39;;;;;;;6.30;5.15;;;22.20;99.90;;;;;;5074434;28;20051;-82
2023/07/09 00:40:09;;;;;;;7.35;5.30;;;22.20;99.90;;;;;;5073758;28;20044;-82
2023/07/09 00:42:35;;;;;;;7.53;5.55;;;22.20;99.90;;;;;;5073070;28;20419;-82
2023/07/09 00:45:01;;;;;;;7.45;5.82;;;22.20;99.90;;;;;;5072462;28;20032;-83
2023/07/09 00:47:35;;;;;;;7.90;5.28;;;22.20;99.90;;;;;;5072769;28;20472;-82
2023/07/09 00:50:31;;;;;;;6.72;5.43;;;22.20;99.90;;;;;;5072544;28;20044;-83
2023/07/09 00:53:02;;;;;;;7.47;5.47;;;22.20;99.90;;;;;;5072874;28;20196;-83
2023/07/09 00:55:32;;;;;;;6.32;5.43;;;22.10;99.90;;;;;;5073929;28;20146;-83
2023/07/09 00:58:02;;;;;;;6.13;5.53;;;22.10;99.90;;;;;;5072787;28;20153;-82
2023/07/09 01:00:53;;;;;;;5.93;4.97;;;22.10;99.90;;;;;;5073929;28;20044;-81
2023/07/09 01:03:29;;;;;;;5.55;4.70;;;22.00;99.90;;;;;;5072693;28;20083;-82
2023/07/09 01:05:57;;;;;;;7.28;4.80;;;22.00;99.90;;;;;;5072820;28;20052;-82
2023/07/09 01:08:24;;;;;;;5.78;4.70;;;21.90;99.90;;;;;;5073700;28;20484;-82
2023/07/09 01:10:50;;;;;;;6.25;4.85;;;21.90;99.90;;;;;;5072771;28;20362;-83
2023/07/09 01:13:19;;;;;;;5.95;4.63;;;21.90;99.90;;;;;;5072287;28;20056;-83
2023/07/09 01:15:46;;;;;;;7.15;4.88;;;21.80;99.90;;;;;;5073451;28;20062;-81
2023/07/09 01:18:14;;;;;;;6.78;4.80;;;21.80;99.90;;;;;;5072512;28;20036;-81
2023/07/09 01:20:40;;;;;;;7.28;5.28;;;21.80;99.90;;;;;;5071947;28;20048;-81
2023/07/09 01:23:07;;;;;;;7.35;5.22;;;21.80;99.90;;;;;;5073409;28;20036;-82
2023/07/09 01:25:35;;;;;;;8.35;5.18;;;21.70;99.90;;;;;;5072420;28;20174;-81
2023/07/09 01:28:01;;;;;;;6.82;5.20;;;21.70;99.90;;;;;;5055831;28;20044;-82
2023/07/09 01:30:33;;;;;;;6.95;5.35;;;21.60;99.90;;;;;;5072298;28;20090;-82
2023/07/09 01:33:00;;;;;;;5.97;4.80;;;21.60;99.90;;;;;;5072427;28;20048;-81
2023/07/09 01:35:29;;;;;;;7.68;5.43;;;21.60;99.90;;;;;;5073046;28;20044;-82
2023/07/09 01:37:56;;;;;;;6.38;4.63;;;21.50;99.90;;;;;;5073141;28;20119;-82
2023/07/09 01:40:24;;;;;;;6.75;5.35;;;21.50;99.90;;;;;;5072430;28;20128;-82
2023/07/09 01:42:51;;;;;;;7.00;4.93;;;21.50;99.90;;;;;;5073287;28;20479;-82
2023/07/09 01:45:20;;;;;;;6.25;5.05;;;21.40;99.90;;;;;;5073207;28;20041;-82
2023/07/09 01:47:46;;;;;;;6.88;5.15;;;21.40;99.90;;;;;;5072080;28;20052;-82
2023/07/09 01:50:12;;;;;;;7.50;5.03;;;21.30;99.90;;;;;;5071356;28;20041;-82
2023/07/09 01:52:41;;;;;;;8.05;5.55;;;21.30;99.90;;;;;;5072028;28;20408;-83
2023/07/09 01:55:13;;;;;;;6.57;5.07;;;21.30;99.90;;;;;;5071769;28;20035;-82
2023/07/09 01:57:40;;;;;;;7.75;5.60;;;21.20;99.90;;;;;;5073289;28;20044;-82
2023/07/09 02:00:10;;;;;;;8.80;5.30;;;21.20;99.90;;;;;;5073148;28;20041;-82
2023/07/09 02:02:38;;;;;;;5.88;5.20;;;21.20;99.90;;;;;;5071669;28;20377;-82
2023/07/09 02:05:05;;;;;;;9.32;5.50;;;21.20;99.90;;;;;;5075580;28;20033;-83
2023/07/09 02:07:31;;;;;;;8.77;5.28;;;21.20;99.90;;;;;;5076100;28;20090;-82
2023/07/09 02:09:58;;;;;;;6.68;5.00;;;21.10;99.90;;;;;;5076869;28;20040;-82
2023/07/09 02:12:24;;;;;;;6.43;4.80;;;21.20;99.90;;;;;;5059174;28;20039;-81
2023/07/09 02:14:50;;;;;;;6.18;4.97;;;21.20;99.90;;;;;;5077167;28;20469;-81
2023/07/09 02:17:16;;;;;;;6.63;4.85;;;21.10;99.90;;;;;;5075633;28;20544;-81
2023/07/09 02:19:42;;;;;;;5.57;4.65;;;21.10;99.90;;;;;;5075348;28;20144;-81
2023/07/09 02:22:09;;;;;;;7.40;5.20;;;21.10;99.90;;;;;;5076591;28;20509;-81
2023/07/09 02:24:34;;;;;;;7.93;5.30;;;21.00;99.90;;;;;;5075594;28;20105;-81
2023/07/09 02:27:03;;;;;;;7.35;5.30;;;21.00;99.90;;;;;;5075972;28;20036;-82
2023/07/09 02:29:29;;;;;;;6.85;4.80;;;21.00;99.90;;;;;;5076611;28;20036;-82
2023/07/09 02:31:57;;;;;;;8.38;5.47;;;21.00;99.90;;;;;;5076718;28;20101;-81
2023/07/09 02:34:25;;;;;;;5.78;5.05;;;21.00;99.90;;;;;;5074985;28;20036;-80
2023/07/09 02:36:52;;;;;;;7.85;5.00;;;21.00;99.90;;;;;;5075561;28;20049;-80
2023/07/09 02:39:19;;;;;;;5.72;4.53;;;21.00;99.90;;;;;;5058703;28;20116;-81
2023/07/09 02:41:45;;;;;;;9.20;5.65;;;20.90;99.90;;;;;;5058574;28;20048;-81
2023/07/09 02:44:11;;;;;;;6.53;5.07;;;20.90;99.90;;;;;;5075228;28;20059;-81
2023/07/09 02:46:36;;;;;;;6.50;4.88;;;20.90;99.90;;;;;;5076313;28;20041;-80
2023/07/09 02:49:06;;;;;;;6.05;4.68;;;20.90;99.90;;;;;;5076234;28;20036;-80
2023/07/09 02:51:33;;;;;;;6.72;4.95;;;20.90;99.90;;;;;;5058179;28;20051;-80
2023/07/09 02:54:01;;;;;;;7.07;5.05;;;20.80;99.90;;;;;;5076156;28;20078;-81
2023/07/09 02:56:27;;;;;;;6.28;4.97;;;20.80;99.90;;;;;;5075049;28;20059;-81
2023/07/09 02:58:53;;;;;;;5.55;4.60;;;20.80;99.90;;;;;;5076040;28;20075;-82
2023/07/09 03:01:24;;;;;;;5.38;4.50;;;20.70;99.90;;;;;;5074992;28;20477;-81
2023/07/09 03:03:54;;;;;;;5.45;4.55;;;20.70;99.90;;;;;;5075002;28;20543;-80
2023/07/09 03:06:21;;;;;;;6.47;4.80;;;20.70;99.90;;;;;;5074897;28;20166;-80
2023/07/09 03:08:47;;;;;;;6.80;4.90;;;20.70;99.90;;;;;;5058522;28;20040;-80
2023/07/09 03:11:14;;;;;;;6.45;4.90;;;20.70;99.90;;;;;;5058089;28;20416;-81
2023/07/09 03:13:39;;;;;;;5.85;5.00;;;20.70;99.90;;;;;;5075847;28;20044;-80
2023/07/09 03:16:05;;;;;;;6.85;5.00;;;20.70;99.90;;;;;;5074587;28;20049;-80
2023/07/09 03:18:31;;;;;;;6.22;4.68;;;20.70;99.90;;;;;;5075160;28;20123;-80
2023/07/09 03:20:58;;;;;;;6.68;4.75;;;20.60;99.90;;;;;;5074762;28;20113;-81
2023/07/09 03:23:24;;;;;;;5.97;4.55;;;20.60;99.90;;;;;;5057155;28;20052;-80
2023/07/09 03:25:49;;;;;;;7.07;5.07;;;20.60;99.90;;;;;;5074436;28;20051;-80
2023/07/09 03:28:15;;;;;;;6.97;5.13;;;20.60;99.90;;;;;;5075463;28;20120;-80
2023/07/09 03:30:42;;;;;;;5.55;4.38;;;20.60;99.90;;;;;;5057811;28;20521;-80
2023/07/09 03:33:09;;;;;;;6.65;4.72;;;20.60;99.90;;;;;;5074353;28;20141;-81
2023/07/09 03:35:36;;;;;;;8.00;4.63;;;20.60;99.90;;;;;;5075122;28;20087;-80
2023/07/09 03:38:02;;;;;;;7.15;5.00;;;20.60;99.90;;;;;;5057740;28;20101;-80
2023/07/09 03:40:28;;;;;;;5.10;4.55;;;20.60;99.90;;;;;;5075270;28;20056;-81
2023/07/09 03:42:53;;;;;;;5.72;4.32;;;20.60;99.90;;;;;;5074286;28;20040;-81
2023/07/09 03:45:19;;;;;;;6.20;4.47;;;20.60;99.90;;;;;;5075390;28;20033;-81
2023/07/09 03:47:45;;;;;;;7.00;4.80;;;20.60;99.90;;;;;;5057472;28;20516;-81
2023/07/09 03:50:11;;;;;;;6.75;4.93;;;20.60;99.90;;;;;;5074838;28;20127;-80
2023/07/09 03:52:37;;;;;;;6.90;4.85;;;20.60;99.90;;;;;;5074036;28;20439;-80
2023/07/09 03:55:04;;;;;;;6.78;4.97;;;20.60;99.90;;;;;;5073738;28;20119;-81
2023/07/09 03:57:30;;;;;;;6.57;4.43;;;20.60;99.90;;;;;;5073947;28;20098;-81
2023/07/09 03:59:56;;;;;;;7.25;5.15;;;20.60;99.90;;;;;;5074136;28;20075;-81
2023/07/09 04:02:22;;;;;;;5.95;4.65;;;20.60;99.90;;;;;;5073969;28;20045;-81
2023/07/09 04:04:47;;;;;;;6.05;5.00;;;20.60;99.90;;;;;;5073701;28;20032;-81
2023/07/09 04:07:13;;;;;;;6.22;5.13;;;20.50;99.90;;;;;;5073685;28;20044;-81
2023/07/09 04:09:39;;;;;;;7.13;5.30;;;20.50;99.90;;;;;;5071542;28;20127;-81
2023/07/09 04:12:05;;;;;;;8.40;5.47;;;20.50;99.90;;;;;;5056954;28;20503;-81
2023/07/09 04:14:31;;;;;;;7.32;5.28;;;20.40;99.90;;;;;;5073166;28;20169;-81
2023/07/09 04:16:57;;;;;;;6.55;5.40;;;20.30;99.90;;;;;;5073729;28;20036;-81
2023/07/09 04:19:23;;;;;;;7.03;5.00;;;20.30;99.90;;;;;;5074610;28;20131;-81
2023/07/09 04:21:49;;;;;;;7.28;5.07;;;20.20;99.90;;;;;;5107019;28;20045;-81
2023/07/09 04:24:17;;;;;;;5.88;5.03;;;20.20;99.90;;;;;;5056982;28;20052;-81
2023/07/09 04:26:43;;;;;;;6.32;5.18;;;20.20;99.90;;;;;;5073561;28;20056;-81
2023/07/09 04:29:09;;;;;;;7.68;5.30;;;20.20;99.90;;;;;;5056619;28;20052;-82
2023/07/09 04:31:35;;;;;;;7.70;5.60;;;20.20;99.90;;;;;;5074290;28;20040;-82
2023/07/09 04:34:01;;;;;;;5.97;4.93;;;20.20;99.90;;;;;;5074321;28;20097;-81
2023/07/09 04:36:27;;;;;;;7.40;5.68;;;20.30;99.90;;;;;;5062271;28;20051;-81
2023/07/09 04:38:52;;;;;;;7.72;4.88;;;20.30;99.90;;;;;;5073905;28;20043;-81
2023/07/09 04:41:18;;;;;;;6.90;5.50;;;20.40;99.90;;;;;;5073021;28;20453;-81
2023/07/09 04:43:44;;;;;;;8.00;5.63;;;20.40;99.90;;;;;;5073146;28;20461;-82
2023/07/09 04:46:10;;;;;;;8.23;5.40;;;20.40;99.90;;;;;;5058488;28;20056;-81
2023/07/09 04:48:35;;;;;;;6.95;5.28;;;20.50;99.90;;;;;;5075440;28;20066;-81
2023/07/09 04:51:01;;;;;;;6.32;5.18;;;20.50;99.90;;;;;;5075583;28;20362;-81
2023/07/09 04:53:27;;;;;;;9.35;6.00;;;20.60;99.90;;;;;;5072824;28;20263;-81
2023/07/09 04:55:53;;;;;;;7.22;5.03;;;20.60;99.90;;;;;;5056199;28;20482;-83
2023/07/09 04:58:19;;;;;;;7.57;5.57;;;20.70;99.90;;;;;;5072821;28;20044;-81
2023/07/09 05:00:45;;;;;;;7.25;5.20;;;20.80;99.90;;;;;;5073878;28;20040;-81
2023/07/09 05:03:11;;;;;;;7.53;5.32;;;20.80;99.90;;;;;;5073562;28;20109;-80
2023/07/09 05:05:44;;;;;;;6.35;4.85;;;20.90;99.90;;;;;;5072771;28;20044;-80
2023/07/09 05:08:10;;;;;;;6.70;4.90;;;20.90;99.90;;;;;;5055857;28;20094;-81
2023/07/09 05:10:44;;;;;;;6.80;5.38;;;21.10;99.90;;;;;;5072125;28;20048;-81
2023/07/09 05:13:10;;;;;;;6.35;5.38;;;21.10;99.90;;;;;;5073583;28;20047;-80
2023/07/09 05:15:39;;;;;;;7.43;5.15;;;21.20;99.90;;;;;;5072120;28;20040;-80
2023/07/09 05:18:05;;;;;;;8.15;5.53;;;21.30;99.90;;;;;;5073524;28;20131;-80
2023/07/09 05:20:31;;;;;;;6.80;5.45;;;21.40;99.90;;;;;;5055545;28;20075;-80
2023/07/09 05:22:56;;;;;;;6.28;5.05;;;21.60;99.90;;;;;;5072254;28;20472;-81
2023/07/09 05:25:22;;;;;;;6.63;4.80;;;21.70;99.90;;;;;;5073391;28;20048;-80
2023/07/09 05:27:48;;;;;;;7.57;5.70;;;21.80;99.90;;;;;;5073457;28;20489;-81
2023/07/09 05:30:13;;;;;;;6.10;4.80;;;22.00;99.90;;;;;;5073377;28;20044;-81
2023/07/09 05:32:39;;;;;;;6.25;4.70;;;22.10;99.90;;;;;;5073287;28;20093;-80
2023/07/09 05:35:05;;;;;;;6.88;5.00;;;22.30;99.90;;;;;;5071802;28;20045;-79
2023/07/09 05:37:31;;;;;;;9.00;4.90;;;22.50;99.90;;;;;;5088638;28;20048;-79
2023/07/09 05:39:57;;;;;;;7.78;4.70;;;22.70;99.90;;;;;;5072383;28;20048;-80
2023/07/09 05:42:22;;;;;;;6.22;4.78;;;22.80;99.90;;;;;;5071713;28;20044;-79
2023/07/09 05:44:48;;;;;;;6.43;4.80;;;22.90;99.90;;;;;;5055583;28;20486;-80
2023/07/09 05:47:14;;;;;;;6.07;4.43;;;22.90;99.90;;;;;;5071640;28;20047;-79
2023/07/09 05:49:40;;;;;;;7.40;4.63;;;23.00;99.90;;;;;;5054549;28;20052;-81
2023/07/09 05:52:06;;;;;;;6.40;4.63;;;23.10;99.90;;;;;;5073178;28;20131;-79
2023/07/09 05:54:31;;;;;;;5.97;4.90;;;23.20;99.90;;;;;;5071654;28;20033;-80
2023/07/09 05:56:57;;;;;;;7.70;5.15;;;23.30;99.90;;;;;;5055406;28;20045;-80
2023/07/09 05:59:23;;;;;;;5.63;4.53;;;23.30;99.90;;;;;;5071894;28;20043;-80
2023/07/09 06:01:49;;;;;;;5.65;4.40;;;23.30;99.90;;;;;;5072963;28;20080;-81
2023/07/09 06:04:14;;;;;;;7.18;4.72;;;23.30;99.90;;;;;;5071801;28;20206;-80
2023/07/09 06:06:41;;;;;;;6.03;4.57;;;23.30;99.90;;;;;;5072760;28;20048;-80
2023/07/09 06:09:10;;;;;;;5.93;4.40;;;23.40;99.90;;;;;;5073041;28;20059;-80
2023/07/09 06:11:35;;;;;;;7.40;4.82;;;23.50;99.90;;;;;;5072880;28;20150;-80
2023/07/09 06:14:01;;;;;;;6.38;4.57;;;23.50;99.90;;;;;;5072816;28;20127;-80
2023/07/09 06:16:27;;;;;;;6.72;4.78;;;23.60;99.90;;;;;;5055166;28;20041;-80
2023/07/09 06:18:53;;;;;;;7.03;4.60;;;23.60;99.90;;;;;;5071501;28;20040;-79
2023/07/09 06:21:19;;;;;;;6.65;4.50;;;23.60;99.90;;;;;;5071222;28;20041;-80
2023/07/09 06:23:47;;;;;;;6.20;4.63;;;23.60;99.90;;;;;;5038694;28;20037;-79
2023/07/09 06:26:13;;;;;;;6.78;4.60;;;23.60;99.90;;;;;;5071696;28;20047;-79
2023/07/09 06:28:39;;;;;;;7.45;4.57;;;23.60;99.90;;;;;;5071780;28;20377;-79
2023/07/09 06:31:04;;;;;;;5.93;4.68;;;23.60;99.90;;;;;;5072749;28;20044;-78
2023/07/09 06:33:30;;;;;;;7.57;5.18;;;23.60;99.90;;;;;;5054820;28;20040;-80
2023/07/09 06:35:58;;;;;;;6.57;4.90;;;23.70;99.90;;;;;;5071091;28;20052;-80
2023/07/09 06:38:25;;;;;;;5.45;4.53;;;23.70;99.90;;;;;;5062593;28;20048;-65
2023/07/09 06:40:51;;;;;;;6.53;4.45;;;23.70;99.90;;;;;;5072628;28;20135;-65
2023/07/09 06:43:17;;;;;;;6.63;4.80;;;23.80;99.90;;;;;;5072498;28;20080;-65
2023/07/09 06:45:55;;;;;;;6.55;4.80;;;23.90;99.90;;;;;;5070922;28;20396;-65
2023/07/09 06:48:21;;;;;;;5.38;4.60;;;24.00;99.90;;;;;;5072441;28;20040;-66
2023/07/09 06:50:47;;;;;;;6.68;4.97;;;24.10;99.90;;;;;;5071043;28;20071;-67
2023/07/09 06:53:13;;;;;;;7.32;4.57;;;24.10;99.90;;;;;;5070040;28;20052;-65
2023/07/09 06:55:39;;;;;;;7.40;4.70;;;24.30;99.90;;;;;;5075395;28;20097;-65
2023/07/09 06:58:05;;;;;;;7.03;4.68;;;24.40;99.90;;;;;;5086529;28;20044;-64
2023/07/09 07:00:31;;;;;;;7.63;4.78;;;24.50;99.90;;;;;;5094602;28;20051;-65
2023/07/09 07:02:57;;;;;;;6.88;5.13;;;24.60;99.90;;;;;;5079024;28;20045;-65
2023/07/09 07:05:23;;;;;;;6.55;4.57;;;24.70;99.90;;;;;;5075953;28;20151;-65
2023/07/09 07:07:48;;;;;;;6.00;4.40;;;24.90;99.90;;;;;;5075457;28;20492;-65
2023/07/09 07:10:14;;;;;;;6.82;4.97;;;24.90;99.90;;;;;;5085983;28;20043;-66
2023/07/09 07:12:49;;;;;;;5.97;4.47;;;25.00;99.90;;;;;;5081025;28;20242;-65
2023/07/09 07:15:17;;;;;;;7.72;5.40;;;25.00;99.90;;;;;;5075511;28;20051;-65
2023/07/09 07:17:43;;;;;;;6.25;4.80;;;25.10;99.90;;;;;;5075430;28;20040;-65
2023/07/09 07:20:10;;;;;;;6.45;4.93;;;25.20;99.90;;;;;;5074740;28;20051;-65
2023/07/09 07:22:37;;;;;;;6.35;4.82;;;25.30;99.90;;;;;;5075053;28;20046;-65
2023/07/09 07:25:04;;;;;;;7.53;4.78;;;25.50;99.90;;;;;;5074423;28;20044;-65
2023/07/09 07:27:29;;;;;;;5.60;4.60;;;25.60;99.90;;;;;;5075439;28;20039;-65
2023/07/09 07:29:55;;;;;;;6.85;5.05;;;25.70;99.90;;;;;;5074987;28;20040;-65
2023/07/09 07:32:21;;;;;;;6.13;4.63;;;25.80;99.90;;;;;;5074659;28;20051;-65
2023/07/09 07:34:48;;;;;;;6.30;4.78;;;25.90;99.90;;;;;;5075250;28;20395;-65
2023/07/09 07:37:14;;;;;;;7.43;4.60;;;26.00;99.90;;;;;;5073110;28;20523;-65
2023/07/09 07:39:40;;;;;;;7.40;4.75;;;26.10;99.90;;;;;;5057354;28;20036;-66
2023/07/09 07:42:06;;;;;;;6.93;4.55;;;26.10;99.90;;;;;;5074882;28;20048;-65
2023/07/09 07:44:32;;;;;;;8.57;5.68;;;26.20;99.90;;;;;;5074560;28;20080;-65
2023/07/09 07:46:58;;;;;;;6.70;5.05;;;26.30;99.90;;;;;;5074916;28;20125;-66
2023/07/09 07:49:23;;;;;;;7.55;5.03;;;26.40;99.90;;;;;;5063104;28;20036;-65
2023/07/09 07:51:49;;;;;;;6.20;4.50;;;26.40;99.90;;;;;;5073785;28;20123;-65
2023/07/09 07:54:15;;;;;;;7.43;4.75;;;26.50;99.90;;;;;;5073647;28;20041;-65
2023/07/09 07:56:41;;;;;;;6.00;4.78;;;26.60;99.90;;;;;;5074344;28;20159;-66
2023/07/09 07:59:07;;;;;;;8.88;4.80;;;26.70;99.90;;;;;;5074368;28;20076;-66
2023/07/09 08:01:35;;;;;;;7.22;5.32;;;26.80;99.90;;;;;;5073169;28;20483;-66
2023/07/09 08:04:02;;;;;;;7.78;4.75;;;26.90;99.90;;;;;;5074545;28;20159;-66
2023/07/09 08:06:27;;;;;;;6.13;4.60;;;27.00;99.90;;;;;;5073838;28;20036;-66
2023/07/09 08:08:53;;;;;;;8.10;4.57;;;27.10;99.90;;;;;;5074038;28;20531;-66
2023/07/09 08:11:19;;;;;;;8.52;4.47;;;27.30;99.90;;;;;;5073961;28;20317;-66
2023/07/09 08:13:45;;;;;;;7.55;4.65;;;27.40;99.90;;;;;;5072700;28;20044;-65
2023/07/09 08:16:14;;;;;;;9.30;4.97;;;27.50;99.90;;;;;;5073826;28;20037;-66
2023/07/09 08:18:40;;;;;;;5.88;4.20;;;27.60;99.90;;;;;;5072977;28;20047;-65
2023/07/09 08:21:05;;;;;;;6.25;4.32;;;27.80;99.90;;;;;;5072696;28;20048;-66
2023/07/09 08:23:31;;;;;;;6.68;4.50;;;27.90;99.90;;;;;;5073935;28;20079;-66
2023/07/09 08:25:59;;;;;;;8.80;4.57;;;28.10;99.90;;;;;;5074084;28;20032;-66
2023/07/09 08:28:25;;;;;;;5.78;4.35;;;28.20;99.90;;;;;;5073963;28;20044;-66
2023/07/09 08:30:54;;;;;;;6.05;4.47;;;28.30;99.90;;;;;;5073507;28;20086;-65
2023/07/09 08:33:20;;;;;;;5.68;4.30;;;28.30;99.90;;;;;;5073862;28;20103;-66
2023/07/09 08:35:48;;;;;;;6.65;4.35;;;28.30;99.90;;;;;;5073177;28;20505;-65
2023/07/09 08:38:14;;;;;;;6.15;4.50;;;28.40;99.90;;;;;;5073527;28;20477;-64
2023/07/09 08:40:44;;;;;;;7.13;4.55;;;28.50;99.90;;;;;;5073528;28;20114;-64
2023/07/09 08:43:33;;;;;;;7.60;5.00;;;28.60;99.90;;;;;;5073543;28;20093;-64
2023/07/09 08:46:06;;;;;;;7.47;4.35;;;28.80;99.90;;;;;;5073644;28;20032;-64
2023/07/09 08:48:35;;;;;;;8.18;4.40;;;28.90;99.90;;;;;;5072333;28;20051;-64
2023/07/09 08:51:15;;;;;;;5.47;3.83;;;29.00;99.90;;;;;;5072806;28;20045;-65
2023/07/09 08:53:58;;;;;;;5.30;3.92;;;29.00;99.90;;;;;;5073802;28;20040;-65
2023/07/09 08:56:25;;;;;;;7.55;4.50;;;29.00;99.90;;;;;;5073157;28;20048;-65
2023/07/09 08:58:55;;;;;;;6.53;4.05;;;29.00;99.90;;;;;;5073249;28;20040;-64
2023/07/09 09:01:25;;;;;;;7.05;4.28;;;29.10;99.90;;;;;;5073217;28;20078;-64
2023/07/09 09:03:56;;;;;;;8.15;4.32;;;29.30;99.90;;;;;;5072543;28;20036;-64
2023/07/09 09:06:26;;;;;;;6.50;4.03;;;29.40;99.90;;;;;;5072142;28;20091;-64
2023/07/09 09:09:26;;;;;;;6.22;4.63;;;29.60;99.90;;;;;;5072857;28;20036;-65
2023/07/09 09:12:15;;;;;;;6.25;4.40;;;29.70;99.90;;;;;;5072832;28;20047;-65
2023/07/09 09:14:52;;;;;;;5.70;4.32;;;29.70;99.90;;;;;;5071858;28;20037;-65
2023/07/09 09:17:19;;;;;;;6.40;3.97;;;29.80;99.90;;;;;;5073222;28;20087;-63
2023/07/09 09:19:53;;;;;;;8.38;4.65;;;29.90;99.90;;;;;;5072059;28;20040;-63
2023/07/09 09:22:24;;;;;;;6.03;4.38;;;30.00;99.90;;;;;;5072797;28;20123;-64
2023/07/09 09:25:15;;;;;;;6.07;4.45;;;30.10;99.90;;;;;;5073122;28;20076;-64
2023/07/09 09:27:42;;;;;;;7.55;4.75;;;30.20;99.90;;;;;;5071750;28;20080;-64
2023/07/09 09:30:16;;;;;;;11.35;4.40;;;30.30;99.90;;;;;;5073307;28;20083;-65
2023/07/09 09:32:52;;;;;;;5.85;4.40;;;30.40;99.90;;;;;;5072932;28;20040;-66
2023/07/09 09:35:20;;;;;;;6.15;4.75;;;30.40;99.90;;;;;;5072459;28;20036;-65
2023/07/09 09:37:54;;;;;;;5.60;4.32;;;30.50;99.90;;;;;;5072871;28;20059;-65
2023/07/09 09:40:24;;;;;;;6.70;4.70;;;30.60;99.90;;;;;;5072575;28;20047;-65
2023/07/09 09:42:51;;;;;;;8.45;4.88;;;30.70;99.90;;;;;;5071942;28;20037;-64
2023/07/09 09:45:20;;;;;;;6.00;4.40;;;30.70;99.90;;;;;;5072239;28;20064;-64
2023/07/09 09:47:47;;;;;;;6.22;3.80;;;30.80;99.90;;;;;;5071021;28;20051;-64
2023/07/09 09:50:17;;;;;;;5.72;4.30;;;30.80;99.90;;;;;;5071489;28;20527;-64
2023/07/09 09:52:45;;;;;;;5.85;4.38;;;30.90;99.90;;;;;;5073232;28;20102;-65
2023/07/09 09:55:38;;;;;;;6.57;4.40;;;31.00;99.90;;;;;;5072417;28;20546;-65
2023/07/09 09:58:14;;;;;;;7.15;4.20;;;31.10;99.90;;;;;;5070651;28;20489;-65
2023/07/09 10:00:39;;;;;;;5.25;4.22;;;31.30;99.90;;;;;;5071647;28;20052;-65
2023/07/09 10:03:08;;;;;;;5.25;4.25;;;31.30;99.90;;;;;;5072906;28;20037;-65
2023/07/09 10:05:56;;;;;;;5.95;4.00;;;31.40;99.90;;;;;;5071863;28;20048;-65
2023/07/09 10:08:59;;;;;;;6.57;4.25;;;31.50;99.90;;;;;;5068548;28;20040;-64
2023/07/09 10:11:45;;;;;;;5.88;4.20;;;31.60;99.90;;;;;;5070738;28;20496;-64
2023/07/09 10:14:20;;;;;;;;;;;31.60;99.90;;;;;;5071157;28;20052;-64
2023/07/09 10:16:51;;;;;;;6.82;4.00;;;31.70;99.90;;;;;;5070152;28;19923;-64
2023/07/09 10:19:33;;;;;;;4.45;3.40;;;31.80;99.90;;;;;;5072012;28;20040;-65
2023/07/09 10:22:32;;;;;;;4.60;3.40;;;31.90;99.90;;;;;;5071754;28;20041;-65
2023/07/09 10:25:34;;;;;;;6.55;3.83;;;32.00;99.90;;;;;;5054446;28;20056;-64
2023/07/09 10:28:03;;;;;;;5.47;3.47;;;32.20;99.90;;;;;;5072614;28;20044;-64
2023/07/09 10:30:50;;;;;;;5.45;3.80;;;32.30;99.90;;;;;;5075971;28;20041;-65
2023/07/09 10:33:35;;;;;;;5.43;3.15;;;32.40;99.90;;;;;;5075174;28;20048;-66
2023/07/09 10:36:16;;;;;;;5.90;3.60;;;32.40;99.90;;;;;;5073204;28;20489;-65
2023/07/09 10:39:02;;;;;;;5.32;3.30;;;32.50;99.90;;;;;;5073369;28;20049;-65
2023/07/09 10:41:28;;;;;;;;;;;32.60;99.90;;;;;;5074501;28;20040;-65
2023/07/09 10:44:16;;;;;;;5.47;3.55;;;32.60;99.90;;;;;;5075807;28;20323;-65
2023/07/09 10:46:47;;;;;;;4.95;3.47;;;32.60;99.90;;;;;;5073142;28;20079;-65
2023/07/09 10:49:15;;;;;;;4.43;3.30;;;32.60;99.90;;;;;;5075788;28;20043;-65
2023/07/09 10:52:04;;;;;;;4.18;3.17;;;32.60;99.90;;;;;;5072572;28;20048;-65
2023/07/09 10:54:37;;;;;;;4.47;2.88;;;32.60;99.90;;;;;;5073998;28;20417;-66
2023/07/09 10:57:17;;;;;;;3.65;2.85;;;32.70;99.90;;;;;;5073056;28;20369;-65
2023/07/09 10:59:48;;;;;;;4.45;3.13;;;32.90;99.90;;;;;;5073260;28;20476;-65
2023/07/09 11:02:30;;;;;;;4.53;3.20;;;33.10;99.90;;;;;;5074905;28;20488;-65
2023/07/09 11:05:04;;;;;;;4.68;3.20;;;33.20;99.90;;;;;;5074945;28;20040;-64
2023/07/09 11:07:59;;;;;;;5.90;3.53;;;33.30;99.90;;;;;;5075792;28;20048;-65
2023/07/09 11:10:31;;;;;;;6.30;3.08;;;33.30;99.90;;;;;;5075333;28;20098;-65
2023/07/09 11:13:15;;;;;;;5.70;3.15;;;33.40;99.90;;;;;;5075774;28;20044;-65
2023/07/09 11:15:44;;;;;;;5.22;3.67;;;33.50;99.90;;;;;;5074601;28;20087;-65
2023/07/09 11:18:21;;;;;;;5.18;3.30;;;33.60;99.90;;;;;;5075662;28;20044;-65
2023/07/09 11:20:54;;;;;;;6.57;3.40;;;33.70;99.90;;;;;;5073851;28;20037;-65
2023/07/09 11:23:24;;;;;;;5.50;3.15;;;33.70;99.90;;;;;;5075342;28;20044;-65
2023/07/09 11:26:14;;;;;;;4.93;2.90;;;33.80;99.90;;;;;;5075096;28;20477;-65
2023/07/09 11:28:42;;;;;;;4.65;3.42;;;33.80;99.90;;;;;;5073771;28;20041;-65
2023/07/09 11:31:16;;;;;;;5.05;3.13;;;33.80;99.90;;;;;;5073971;28;20040;-65
2023/07/09 11:33:59;;;;;;;5.50;3.20;;;33.90;99.90;;;;;;5075479;28;20075;-65
2023/07/09 11:36:28;;;;;;;3.97;3.05;;;33.90;99.90;;;;;;5072969;28;20489;-65
2023/07/09 11:38:54;;;;;;;3.90;3.17;;;34.00;99.90;;;;;;5074893;28;20110;-65
2023/07/09 11:41:42;;;;;;;4.60;2.97;;;34.10;99.90;;;;;;5075045;28;20461;-65
2023/07/09 11:44:18;;;;;;;3.80;3.00;;;34.20;99.90;;;;;;5074311;28;20082;-65
2023/07/09 11:47:14;;;;;;;3.65;2.70;;;34.20;99.90;;;;;;5074500;28;20111;-65
2023/07/09 11:49:48;;;;;;;4.38;3.13;;;34.20;99.90;;;;;;5073270;28;20038;-65
2023/07/09 11:52:18;;;;;;;5.07;3.00;;;34.30;99.90;;;;;;5071835;28;20044;-65
2023/07/09 11:54:44;;;;;;;4.80;3.25;;;34.30;99.90;;;;;;5074322;28;20122;-65
2023/07/09 11:57:16;;;;;;;3.90;2.85;;;34.40;99.90;;;;;;5074469;28;20036;-65
2023/07/09 11:59:42;;;;;;;6.20;3.10;;;34.50;99.90;;;;;;5074165;28;20071;-65
2023/07/09 12:02:19;;;;;;;4.22;3.10;;;34.60;99.90;;;;;;5073062;28;20477;-65
2023/07/09 12:04:50;;;;;;;5.00;3.08;;;34.70;99.90;;;;;;5074067;28;20556;-64
2023/07/09 12:07:17;;;;;;;4.32;3.33;;;34.80;99.90;;;;;;5074075;28;20080;-64
2023/07/09 12:09:50;;;;;;;3.90;2.95;;;34.80;99.90;;;;;;5074304;28;20036;-65
2023/07/09 12:12:27;;;;;;;4.40;2.83;;;34.90;99.90;;;;;;5072177;28;20058;-65
2023/07/09 12:14:54;;;;;;;4.80;2.83;;;34.90;99.90;;;;;;5071635;28;20111;-65
2023/07/09 12:17:26;;;;;;;4.10;2.45;;;34.90;99.90;;;;;;5073331;28;20556;-64
2023/07/09 12:19:52;;;;;;;4.55;2.83;;;34.90;99.90;;;;;;5071570;28;20059;-64
2023/07/09 12:22:22;;;;;;;4.85;3.28;;;34.90;99.90;;;;;;5073517;28;20040;-64
2023/07/09 12:24:49;;;;;;;4.40;3.08;;;34.90;99.90;;;;;;5073507;28;20194;-65
2023/07/09 12:27:24;;;;;;;5.85;2.75;;;34.90;99.90;;;;;;5073642;28;20040;-65
2023/07/09 12:29:56;;;;;;;4.35;2.72;;;34.90;99.90;;;;;;5071152;28;20040;-64
2023/07/09 12:32:23;;;;;;;3.70;2.70;;;34.80;99.90;;;;;;5073755;28;20040;-65
2023/07/09 12:34:53;;;;;;;4.32;2.55;;;34.50;99.90;;;;;;5073309;28;20528;-65
2023/07/09 12:37:23;;;;;;;3.67;2.50;;;34.30;99.90;;;;;;5073261;28;20056;-64
2023/07/09 12:39:52;;;;;;;4.03;2.65;;;34.20;99.90;;;;;;5073708;28;20041;-65
2023/07/09 12:42:34;;;;;;;4.00;2.70;;;34.20;99.90;;;;;;5073729;28;20047;-65
2023/07/09 12:45:00;;;;;;;4.65;2.40;;;34.20;99.90;;;;;;5071717;28;20468;-65
2023/07/09 12:47:25;;;;;;;4.10;2.65;;;34.30;99.90;;;;;;5073142;28;20429;-65
2023/07/09 12:50:01;;;;;;;4.90;2.92;;;34.50;99.90;;;;;;5073600;28;20052;-64
2023/07/09 12:52:26;;;;;;;4.03;2.60;;;34.50;99.90;;;;;;5072825;28;20036;-65
2023/07/09 12:55:00;;;;;;;4.30;2.63;;;34.50;99.90;;;;;;5073431;28;20036;-64
2023/07/09 12:57:27;;;;;;;4.25;2.60;;;34.50;99.90;;;;;;5073437;28;20145;-65
2023/07/09 12:59:55;;;;;;;5.50;2.90;;;34.40;99.90;;;;;;5073754;28;20044;-64